< < Back
Terminal Aerodrome Forecast


Current Version              Previous Versions:   1  2  3  4  5  6  7  8  9  

Terminal Aerodrome Forecast

202
FTUS42 KILM 270520
TAFILM
TAF
KILM 270520Z 2706/2806 17008KT P6SM SCT025 BKN050
     FM270900 18005KT P6SM SCT015 BKN025
     FM271200 19007KT P6SM SCT025 BKN050
     FM271500 16012G16KT P6SM SCT120 BKN250
     FM280200 VRB03KT P6SM SKC=

Latest METAR

560
SAUS70 KWBC 270900 RRA
MTRILM
METAR KILM 270853Z AUTO 17004KT 10SM BKN047 OVC065 23/21 A3022 RMK AO2
SLP234 T02330211 55010


USA.gov is the U.S. government's official web portal to all federal, state and local government web resources and services.